createdAt,value
2018-05-18T00:01:55.597Z,27.40
2018-05-18T00:04:22.525Z,27.63
2018-05-18T00:06:49.035Z,25.27
2018-05-18T00:09:16.289Z,29.67
2018-05-18T00:11:42.942Z,29.53
2018-05-18T00:14:09.958Z,28.67
2018-05-18T00:16:36.474Z,29.57
2018-05-18T00:19:03.049Z,30.63
2018-05-18T00:21:29.556Z,31.97
2018-05-18T00:23:56.009Z,29.77
2018-05-18T00:26:23.222Z,28.30
2018-05-18T00:28:50.445Z,27.87
2018-05-18T00:31:17.569Z,31.60
2018-05-18T00:33:45.249Z,32.33
2018-05-18T00:36:13.561Z,31.90
2018-05-18T00:38:40.045Z,32.30
2018-05-18T00:41:07.152Z,35.37
2018-05-18T00:43:34.293Z,32.57
2018-05-18T00:46:01.112Z,33.47
2018-05-18T00:48:28.294Z,35.47
2018-05-18T00:50:55.274Z,35.90
2018-05-18T00:53:22.250Z,39.83
2018-05-18T00:55:49.102Z,37.90
2018-05-18T00:58:16.001Z,38.10
2018-05-18T01:00:43.189Z,37.60
2018-05-18T01:03:09.756Z,37.37
2018-05-18T01:05:36.197Z,37.13
2018-05-18T01:08:02.907Z,42.20
2018-05-18T01:10:29.862Z,39.67
2018-05-18T01:12:57.431Z,39.17
2018-05-18T01:17:58.213Z,43.40
2018-05-18T01:23:16.270Z,40.60
2018-05-18T01:25:43.053Z,42.57
2018-05-18T01:28:09.445Z,41.57
2018-05-18T01:30:35.920Z,38.87
2018-05-18T01:33:03.253Z,41.70
2018-05-18T01:35:29.739Z,35.80
2018-05-18T01:37:56.463Z,38.90
2018-05-18T01:40:22.860Z,37.50
2018-05-18T01:42:49.778Z,39.97
2018-05-18T01:45:16.528Z,41.83
2018-05-18T01:47:44.667Z,40.27
2018-05-18T01:50:11.120Z,41.20
2018-05-18T01:52:37.924Z,38.07
2018-05-18T01:55:04.400Z,39.93
2018-05-18T01:57:30.834Z,39.80
2018-05-18T01:59:57.670Z,43.97
2018-05-18T02:02:24.137Z,34.93
2018-05-18T02:04:52.389Z,41.10
2018-05-18T02:07:19.546Z,37.40
2018-05-18T02:09:46.008Z,39.23
2018-05-18T02:12:13.181Z,38.27
2018-05-18T02:14:39.616Z,36.10
2018-05-18T02:17:06.824Z,39.00
2018-05-18T02:19:35.012Z,37.70
2018-05-18T02:22:02.674Z,37.30
2018-05-18T02:24:29.482Z,37.30
2018-05-18T02:26:56.773Z,32.90
2018-05-18T02:29:23.674Z,34.50
2018-05-18T02:31:50.066Z,34.50
2018-05-18T02:34:16.602Z,34.00
2018-05-18T02:36:43.141Z,35.20
2018-05-18T02:39:11.277Z,33.37
2018-05-18T02:41:38.077Z,33.97
2018-05-18T02:44:05.694Z,34.10
2018-05-18T02:46:33.424Z,33.07
2018-05-18T02:49:00.222Z,34.60
2018-05-18T02:51:27.781Z,32.37
2018-05-18T02:53:54.334Z,30.73
2018-05-18T02:56:22.342Z,29.37
2018-05-18T02:58:49.176Z,29.50
2018-05-18T03:01:15.739Z,30.33
2018-05-18T03:03:42.868Z,29.80
2018-05-18T03:06:09.512Z,33.17
2018-05-18T03:08:36.761Z,27.37
2018-05-18T03:11:04.385Z,28.20
2018-05-18T03:13:30.827Z,32.17
2018-05-18T03:15:58.003Z,28.97
2018-05-18T03:18:24.904Z,28.50
2018-05-18T03:20:52.108Z,28.87
2018-05-18T03:23:18.708Z,29.30
2018-05-18T03:25:45.226Z,26.50
2018-05-18T03:28:12.098Z,27.30
2018-05-18T03:30:38.550Z,25.97
2018-05-18T03:33:06.724Z,25.57
2018-05-18T03:35:34.827Z,26.97
2018-05-18T03:38:02.026Z,28.33
2018-05-18T03:40:28.487Z,27.23
2018-05-18T03:42:54.910Z,26.53
2018-05-18T03:45:21.356Z,24.03
2018-05-18T03:47:47.878Z,27.30
2018-05-18T03:50:15.070Z,25.53
2018-05-18T03:52:41.493Z,24.30
2018-05-18T03:55:09.620Z,26.50
2018-05-18T03:57:37.561Z,24.20
2018-05-18T04:00:04.131Z,23.00
2018-05-18T04:02:44.110Z,19.87
2018-05-18T04:08:19.418Z,21.00
2018-05-18T04:10:47.351Z,20.40
2018-05-18T04:13:14.971Z,20.40
2018-05-18T04:15:42.433Z,19.73
2018-05-18T04:18:09.242Z,22.57
2018-05-18T04:20:37.394Z,20.67
2018-05-18T04:23:06.526Z,20.17
2018-05-18T04:25:33.007Z,19.27
2018-05-18T04:28:00.702Z,19.67
2018-05-18T04:30:27.549Z,20.40
2018-05-18T04:32:54.044Z,22.20
2018-05-18T04:35:20.626Z,24.03
2018-05-18T04:37:47.125Z,18.70
2018-05-18T04:40:13.534Z,21.23
2018-05-18T04:42:40.346Z,19.23
2018-05-18T04:45:06.964Z,17.53
2018-05-18T04:47:34.412Z,19.80
2018-05-18T04:50:00.860Z,17.87
2018-05-18T04:52:28.609Z,19.07
2018-05-18T04:54:55.128Z,18.73
2018-05-18T04:57:23.353Z,19.13
2018-05-18T04:59:49.957Z,18.90
2018-05-18T05:02:17.962Z,19.47
2018-05-18T05:04:44.410Z,19.50
2018-05-18T05:07:13.495Z,20.03
2018-05-18T05:09:40.676Z,15.67
2018-05-18T05:12:07.074Z,17.37
2018-05-18T05:14:35.192Z,17.50
2018-05-18T05:17:03.320Z,17.67
2018-05-18T05:19:30.868Z,19.90
2018-05-18T05:21:57.375Z,16.87
2018-05-18T05:24:25.638Z,18.40
2018-05-18T05:26:52.942Z,17.20
2018-05-18T05:29:20.269Z,18.33
2018-05-18T05:31:46.862Z,17.57
2018-05-18T05:34:14.160Z,20.13
2018-05-18T05:36:42.495Z,18.83
2018-05-18T05:39:10.445Z,17.73
2018-05-18T05:41:36.945Z,17.80
2018-05-18T05:44:03.516Z,16.80
2018-05-18T05:46:30.017Z,16.50
2018-05-18T05:48:56.420Z,15.50
2018-05-18T05:51:23.760Z,17.60
2018-05-18T05:53:50.990Z,16.50
2018-05-18T05:58:50.264Z,18.10
2018-05-18T06:01:19.839Z,18.20
2018-05-18T06:03:46.825Z,15.70
2018-05-18T06:06:14.864Z,16.00
2018-05-18T06:08:42.149Z,13.03
2018-05-18T06:11:09.600Z,15.40
2018-05-18T06:13:37.777Z,14.80
2018-05-18T06:16:04.277Z,17.30
2018-05-18T06:18:31.456Z,18.20
2018-05-18T06:20:58.743Z,17.10
2018-05-18T06:23:25.164Z,15.87
2018-05-18T06:25:52.307Z,15.73
2018-05-18T06:28:19.549Z,15.67
2018-05-18T06:30:46.061Z,15.47
2018-05-18T06:33:13.372Z,13.57
2018-05-18T06:35:41.549Z,14.10
2018-05-18T06:38:08.778Z,15.00
2018-05-18T06:40:36.487Z,15.63
2018-05-18T06:43:03.174Z,14.00
2018-05-18T06:45:30.018Z,13.47
2018-05-18T06:47:56.970Z,13.43
2018-05-18T06:50:30.007Z,13.07
2018-05-18T06:52:57.816Z,13.80
2018-05-18T06:55:24.229Z,13.90
2018-05-18T06:57:51.441Z,14.00
2018-05-18T07:00:17.821Z,15.40
2018-05-18T07:02:45.076Z,15.27
2018-05-18T07:05:11.613Z,14.20
2018-05-18T07:07:38.089Z,15.00
2018-05-18T07:10:04.618Z,15.50
2018-05-18T07:12:31.139Z,16.30
2018-05-18T07:14:57.600Z,13.93
2018-05-18T07:17:24.071Z,15.30
2018-05-18T07:19:51.352Z,12.50
2018-05-18T07:22:17.776Z,14.30
2018-05-18T07:24:46.122Z,15.40
2018-05-18T07:27:13.872Z,16.30
2018-05-18T07:29:41.417Z,14.80
2018-05-18T07:32:08.087Z,14.37
2018-05-18T07:34:35.751Z,14.50
2018-05-18T07:37:02.245Z,15.17
2018-05-18T07:39:29.742Z,14.57
2018-05-18T07:41:56.527Z,16.03
2018-05-18T07:44:24.999Z,14.03
2018-05-18T07:46:53.174Z,13.40
2018-05-18T07:49:19.679Z,15.57
2018-05-18T07:51:46.227Z,14.73
2018-05-18T07:54:12.751Z,14.43
2018-05-18T07:56:39.557Z,12.77
2018-05-18T07:59:07.531Z,13.90
2018-05-18T08:01:34.059Z,13.37
2018-05-18T08:04:00.969Z,12.70
2018-05-18T08:06:27.527Z,14.07
2018-05-18T08:08:55.091Z,13.83
2018-05-18T08:11:22.190Z,13.53
2018-05-18T08:13:48.743Z,12.80
2018-05-18T08:16:15.726Z,12.80
2018-05-18T08:18:42.208Z,12.70
2018-05-18T08:21:08.683Z,13.00
2018-05-18T08:23:41.301Z,12.07
2018-05-18T08:26:09.193Z,11.80
2018-05-18T08:28:48.315Z,12.97
2018-05-18T08:31:15.670Z,12.50
2018-05-18T08:33:42.993Z,13.43
2018-05-18T08:36:10.230Z,11.70
2018-05-18T08:38:36.765Z,13.47
2018-05-18T08:41:03.404Z,12.40
2018-05-18T08:43:31.728Z,12.40
2018-05-18T08:45:58.438Z,13.20
2018-05-18T08:48:25.723Z,11.63
2018-05-18T08:50:52.395Z,12.60
2018-05-18T08:53:19.572Z,11.97
2018-05-18T08:55:47.693Z,13.33
2018-05-18T08:58:15.384Z,13.20
2018-05-18T09:00:41.876Z,15.33
2018-05-18T09:03:08.656Z,14.00
2018-05-18T09:05:36.066Z,13.77
2018-05-18T09:08:03.054Z,13.43
2018-05-18T09:10:29.469Z,12.90
2018-05-18T09:12:56.805Z,13.03
2018-05-18T09:15:23.337Z,13.47
2018-05-18T09:17:50.162Z,13.40
2018-05-18T09:20:17.020Z,16.23
2018-05-18T09:22:43.904Z,13.37
2018-05-18T09:25:11.272Z,13.33
2018-05-18T09:27:41.185Z,11.97
2018-05-18T09:30:09.048Z,13.20
2018-05-18T09:32:35.418Z,12.63
2018-05-18T09:35:01.861Z,12.77
2018-05-18T09:37:30.085Z,14.23
2018-05-18T09:39:56.870Z,12.87
2018-05-18T09:42:24.406Z,13.27
2018-05-18T09:44:51.673Z,12.97
2018-05-18T09:47:18.108Z,13.33
2018-05-18T09:49:45.665Z,11.73
2018-05-18T09:52:13.088Z,14.07
2018-05-18T09:54:40.102Z,13.23
2018-05-18T09:57:06.481Z,11.80
2018-05-18T09:59:32.996Z,12.87
2018-05-18T10:01:59.522Z,12.27
2018-05-18T10:04:26.366Z,12.03
2018-05-18T10:06:55.208Z,11.67
2018-05-18T10:09:22.449Z,10.30
2018-05-18T10:11:49.769Z,13.27
2018-05-18T10:14:17.416Z,12.40
2018-05-18T10:16:43.908Z,12.57
2018-05-18T10:19:10.427Z,12.80
2018-05-18T10:21:38.056Z,13.83
2018-05-18T10:24:06.204Z,12.77
2018-05-18T10:26:32.763Z,13.50
2018-05-18T10:28:59.716Z,12.73
2018-05-18T10:31:26.972Z,14.17
2018-05-18T10:33:53.597Z,12.87
2018-05-18T10:36:21.850Z,13.23
2018-05-18T10:38:51.786Z,12.80
2018-05-18T10:41:18.204Z,14.93
2018-05-18T10:43:46.820Z,14.50
2018-05-18T10:46:14.207Z,14.00
2018-05-18T10:48:41.346Z,15.27
2018-05-18T10:51:08.277Z,14.33
2018-05-18T10:53:34.911Z,13.47
2018-05-18T10:56:03.050Z,15.07
2018-05-18T10:58:29.441Z,14.20
2018-05-18T11:00:58.062Z,14.37
2018-05-18T11:03:26.135Z,15.03
2018-05-18T11:05:52.646Z,14.67
2018-05-18T11:08:19.902Z,15.03
2018-05-18T11:10:47.111Z,15.37
2018-05-18T11:13:14.350Z,15.20
2018-05-18T11:15:41.613Z,14.90
2018-05-18T11:18:08.080Z,13.90
2018-05-18T11:20:34.925Z,14.97
2018-05-18T11:23:02.314Z,14.30
2018-05-18T11:25:30.176Z,13.50
2018-05-18T11:27:58.398Z,14.47
2018-05-18T11:30:24.788Z,14.90
2018-05-18T11:32:51.421Z,14.83
2018-05-18T11:35:17.984Z,14.73
2018-05-18T11:37:44.763Z,14.20
2018-05-18T11:40:11.547Z,16.60
2018-05-18T11:42:38.118Z,14.33
2018-05-18T11:45:04.594Z,14.30
2018-05-18T11:47:32.850Z,12.60
2018-05-18T11:50:01.253Z,13.10
2018-05-18T11:52:29.493Z,12.87
2018-05-18T11:54:57.627Z,14.57
2018-05-18T11:57:26.080Z,14.27
2018-05-18T11:59:54.497Z,14.60
2018-05-18T12:02:21.340Z,14.10
2018-05-18T12:04:54.869Z,14.23
2018-05-18T12:07:21.273Z,13.80
2018-05-18T12:09:49.668Z,14.57
2018-05-18T12:12:16.179Z,15.13
2018-05-18T12:14:43.405Z,13.87
2018-05-18T12:17:09.839Z,14.73
2018-05-18T12:19:36.453Z,14.70
2018-05-18T12:22:04.757Z,16.20
2018-05-18T12:24:32.012Z,13.50
2018-05-18T12:26:58.609Z,15.20
2018-05-18T12:29:26.813Z,12.90
2018-05-18T12:31:55.106Z,16.33
2018-05-18T12:34:23.212Z,15.10
2018-05-18T12:36:50.052Z,15.77
2018-05-18T12:39:18.307Z,15.17
2018-05-18T12:41:46.514Z,15.93
2018-05-18T12:44:13.808Z,15.20
2018-05-18T12:46:41.464Z,16.23
2018-05-18T12:49:09.653Z,13.57
2018-05-18T12:51:36.223Z,15.97
2018-05-18T12:54:03.622Z,14.33
2018-05-18T12:56:30.366Z,14.80
2018-05-18T12:58:58.458Z,14.10
2018-05-18T13:01:26.708Z,14.50
2018-05-18T13:03:54.980Z,13.23
2018-05-18T13:06:23.244Z,15.00
2018-05-18T13:08:50.481Z,13.30
2018-05-18T13:11:19.169Z,14.03
2018-05-18T13:13:47.471Z,15.07
2018-05-18T13:16:13.975Z,14.07
2018-05-18T13:18:41.577Z,13.87
2018-05-18T13:21:08.406Z,14.27
2018-05-18T13:23:36.921Z,13.23
2018-05-18T13:26:06.644Z,13.90
2018-05-18T13:28:34.616Z,13.97
2018-05-18T13:31:02.528Z,14.13
2018-05-18T13:33:30.705Z,13.20
2018-05-18T13:35:57.446Z,13.20
2018-05-18T13:38:24.150Z,13.93
2018-05-18T13:40:51.338Z,12.77
2018-05-18T13:43:19.236Z,13.80
2018-05-18T13:45:46.798Z,15.00
2018-05-18T13:48:14.901Z,14.70
2018-05-18T13:50:41.318Z,14.40
2018-05-18T13:53:08.545Z,13.83
2018-05-18T13:55:35.501Z,12.60
2018-05-18T13:58:01.971Z,13.77
2018-05-18T14:00:28.654Z,14.13
2018-05-18T14:02:58.147Z,14.00
2018-05-18T14:05:25.033Z,14.50
2018-05-18T14:07:52.678Z,12.40
2018-05-18T14:10:20.018Z,14.60
2018-05-18T14:12:47.679Z,11.70
2018-05-18T14:15:15.580Z,12.80
2018-05-18T14:17:43.882Z,10.57
2018-05-18T14:20:11.215Z,11.20
2018-05-18T14:22:39.445Z,9.80
2018-05-18T14:25:06.139Z,11.33
2018-05-18T14:27:39.681Z,9.87
2018-05-18T14:30:08.018Z,9.80
2018-05-18T14:32:34.545Z,11.30
2018-05-18T14:35:01.751Z,10.40
2018-05-18T14:37:28.625Z,10.60
2018-05-18T14:39:56.007Z,10.13
2018-05-18T14:42:22.664Z,12.10
2018-05-18T14:44:51.156Z,9.50
2018-05-18T14:47:18.190Z,10.67
2018-05-18T14:49:44.726Z,10.30
2018-05-18T14:52:12.081Z,10.73
2018-05-18T14:54:41.569Z,9.73
2018-05-18T14:57:08.464Z,9.30
2018-05-18T14:59:35.088Z,11.60
2018-05-18T15:02:01.685Z,11.07
2018-05-18T15:04:29.008Z,12.83
2018-05-18T15:06:56.354Z,11.10
2018-05-18T15:09:23.172Z,10.97
2018-05-18T15:11:50.688Z,10.13
2018-05-18T15:14:17.665Z,10.40
2018-05-18T15:16:45.377Z,10.20
2018-05-18T15:19:14.040Z,10.00
2018-05-18T15:21:41.484Z,10.70
2018-05-18T15:24:08.082Z,10.20
2018-05-18T15:26:36.281Z,11.60
2018-05-18T15:29:03.310Z,10.20
2018-05-18T15:31:29.823Z,10.80
2018-05-18T15:33:56.362Z,10.87
2018-05-18T15:36:23.222Z,10.33
2018-05-18T15:38:53.137Z,11.00
2018-05-18T15:41:23.489Z,11.57
2018-05-18T15:43:51.614Z,10.03
2018-05-18T15:46:19.753Z,8.93
2018-05-18T15:48:46.263Z,9.40
2018-05-18T15:51:13.145Z,9.07
2018-05-18T15:53:39.681Z,11.53
2018-05-18T15:56:06.331Z,10.67
2018-05-18T15:58:33.363Z,9.63
2018-05-18T16:01:00.665Z,9.23
2018-05-18T16:03:27.505Z,9.37
2018-05-18T16:05:54.251Z,10.10
2018-05-18T16:08:21.324Z,10.13
2018-05-18T16:10:49.452Z,10.20
2018-05-18T16:13:16.861Z,9.73
2018-05-18T16:15:44.550Z,9.77
2018-05-18T16:18:12.853Z,9.80
2018-05-18T16:20:39.709Z,9.30
2018-05-18T16:23:07.935Z,9.27
2018-05-18T16:25:34.621Z,9.20
2018-05-18T16:28:02.289Z,8.30
2018-05-18T16:30:30.679Z,8.00
2018-05-18T16:32:57.411Z,8.87
2018-05-18T16:35:23.977Z,9.23
2018-05-18T16:37:52.508Z,8.90
2018-05-18T16:40:20.547Z,8.10
2018-05-18T16:42:47.501Z,8.47
2018-05-18T16:45:15.128Z,8.43
2018-05-18T16:47:42.588Z,7.53
2018-05-18T16:50:09.199Z,7.07
2018-05-18T16:52:36.151Z,7.87
2018-05-18T16:55:03.497Z,7.90
2018-05-18T16:57:31.797Z,7.77
2018-05-18T16:59:59.521Z,7.27
2018-05-18T17:02:26.991Z,8.00
2018-05-18T17:04:54.328Z,9.13
2018-05-18T17:07:22.528Z,8.30
2018-05-18T17:09:50.516Z,8.37
2018-05-18T17:12:27.967Z,8.97
2018-05-18T17:14:54.460Z,8.47
2018-05-18T17:17:21.572Z,8.07
2018-05-18T17:19:48.372Z,7.70
2018-05-18T17:22:15.667Z,7.33
2018-05-18T17:24:42.173Z,9.40
2018-05-18T17:27:09.758Z,9.70
2018-05-18T17:29:38.017Z,8.07
2018-05-18T17:32:05.680Z,7.73
2018-05-18T17:34:33.338Z,8.30
2018-05-18T17:37:01.983Z,8.17
2018-05-18T17:39:30.047Z,8.77
2018-05-18T17:41:57.370Z,9.00
2018-05-18T17:44:24.255Z,9.30
2018-05-18T17:46:51.829Z,9.60
2018-05-18T17:49:18.450Z,9.30
2018-05-18T17:51:45.692Z,8.70
2018-05-18T17:54:12.889Z,9.73
2018-05-18T17:56:39.348Z,9.57
2018-05-18T17:59:06.992Z,9.60
2018-05-18T18:01:33.732Z,10.17
2018-05-18T18:04:00.575Z,8.93
2018-05-18T18:06:27.467Z,9.50
2018-05-18T18:08:55.609Z,8.90
2018-05-18T18:11:23.824Z,9.10
2018-05-18T18:13:51.890Z,10.20
2018-05-18T18:16:19.829Z,9.83
2018-05-18T18:18:47.073Z,9.60
2018-05-18T18:21:13.613Z,8.93
2018-05-18T18:23:40.046Z,10.40
2018-05-18T18:26:06.485Z,9.07
2018-05-18T18:28:33.145Z,9.17
2018-05-18T18:31:00.285Z,10.83
2018-05-18T18:33:27.021Z,9.87
2018-05-18T18:35:53.867Z,8.60
2018-05-18T18:38:20.330Z,10.10
2018-05-18T18:40:47.289Z,10.30
2018-05-18T18:43:14.218Z,9.40
2018-05-18T18:45:41.439Z,9.80
2018-05-18T18:48:09.077Z,8.77
2018-05-18T18:50:35.917Z,9.27
2018-05-18T18:53:02.396Z,9.87
2018-05-18T18:55:29.601Z,9.97
2018-05-18T18:57:56.377Z,10.37
2018-05-18T19:00:22.875Z,10.07
2018-05-18T19:02:49.937Z,10.00
2018-05-18T19:05:17.245Z,10.00
2018-05-18T19:07:44.824Z,9.30
2018-05-18T19:10:11.251Z,12.40
2018-05-18T19:12:38.348Z,10.40
2018-05-18T19:15:04.889Z,8.80
2018-05-18T19:17:32.758Z,9.30
2018-05-18T19:20:00.433Z,10.00
2018-05-18T19:22:26.909Z,10.67
2018-05-18T19:24:54.118Z,12.20
2018-05-18T19:27:21.037Z,10.13
2018-05-18T19:29:47.601Z,10.60
2018-05-18T19:32:14.935Z,10.23
2018-05-18T19:34:42.486Z,10.27
2018-05-18T19:37:09.393Z,10.70
2018-05-18T19:39:37.157Z,9.63
2018-05-18T19:42:03.748Z,10.87
2018-05-18T19:44:30.314Z,9.13
2018-05-18T19:46:57.215Z,10.53
2018-05-18T19:49:23.835Z,10.80
2018-05-18T19:51:50.804Z,9.77
2018-05-18T19:54:18.920Z,10.70
2018-05-18T19:56:47.399Z,9.50
2018-05-18T19:59:14.975Z,9.30
2018-05-18T20:01:41.526Z,9.10
2018-05-18T20:04:09.770Z,9.20
2018-05-18T20:06:36.769Z,10.13
2018-05-18T20:09:04.719Z,10.10
2018-05-18T20:11:31.281Z,8.90
2018-05-18T20:13:58.634Z,12.27
2018-05-18T20:16:26.245Z,11.53
2018-05-18T20:18:52.863Z,11.80
2018-05-18T20:21:19.815Z,10.90
2018-05-18T20:23:46.414Z,11.00
2018-05-18T20:26:13.565Z,10.77
2018-05-18T20:28:41.064Z,10.43
2018-05-18T20:31:07.647Z,13.20
2018-05-18T20:33:35.015Z,12.50
2018-05-18T20:36:03.393Z,12.60
2018-05-18T20:38:31.088Z,12.83
2018-05-18T20:40:57.695Z,13.13
2018-05-18T20:43:25.459Z,13.40
2018-05-18T20:45:52.985Z,10.83
2018-05-18T20:48:20.898Z,11.77
2018-05-18T20:50:49.266Z,10.00
2018-05-18T20:53:15.862Z,10.40
2018-05-18T20:55:43.300Z,9.90
2018-05-18T20:58:17.748Z,10.87
2018-05-18T21:00:44.572Z,11.47
2018-05-18T21:03:11.155Z,9.27
2018-05-18T21:05:37.855Z,9.87
2018-05-18T21:08:04.553Z,10.60
2018-05-18T21:10:32.142Z,10.80
2018-05-18T21:12:58.751Z,11.53
2018-05-18T21:15:25.369Z,11.10
2018-05-18T21:17:51.978Z,10.00
2018-05-18T21:20:20.136Z,11.27
2018-05-18T21:22:48.570Z,9.93
2018-05-18T21:25:15.190Z,10.53
2018-05-18T21:27:43.948Z,10.93
2018-05-18T21:30:10.526Z,11.47
2018-05-18T21:32:37.490Z,9.80
2018-05-18T21:35:04.131Z,11.63
2018-05-18T21:37:31.702Z,9.97
2018-05-18T21:39:58.228Z,9.93
2018-05-18T21:42:24.740Z,9.27
2018-05-18T21:44:52.187Z,11.17
2018-05-18T21:47:19.111Z,11.30
2018-05-18T21:49:46.116Z,10.43
2018-05-18T21:52:12.670Z,11.30
2018-05-18T21:54:42.343Z,10.30
2018-05-18T21:57:09.009Z,9.47
2018-05-18T21:59:35.563Z,10.63
2018-05-18T22:02:02.104Z,9.07
2018-05-18T22:04:28.612Z,10.30
2018-05-18T22:06:55.195Z,10.37
2018-05-18T22:09:21.588Z,10.63
2018-05-18T22:11:48.081Z,10.10
2018-05-18T22:14:17.109Z,9.30
2018-05-18T22:16:45.497Z,11.50
2018-05-18T22:19:12.002Z,12.60
2018-05-18T22:21:39.419Z,10.30
2018-05-18T22:24:05.946Z,10.67
2018-05-18T22:26:32.448Z,9.80
2018-05-18T22:28:58.919Z,10.60
2018-05-18T22:31:25.727Z,12.80
2018-05-18T22:33:52.241Z,12.13
2018-05-18T22:36:19.093Z,11.30
2018-05-18T22:38:45.902Z,11.07
2018-05-18T22:41:12.616Z,12.03
2018-05-18T22:43:39.236Z,11.83
2018-05-18T22:46:05.769Z,11.43
2018-05-18T22:48:32.673Z,11.43
2018-05-18T22:50:59.990Z,12.13
2018-05-18T22:53:26.491Z,12.10
2018-05-18T22:55:53.932Z,11.13
2018-05-18T22:58:21.422Z,11.87
2018-05-18T23:00:47.912Z,10.87
2018-05-18T23:03:15.708Z,11.80
2018-05-18T23:05:43.949Z,13.37
2018-05-18T23:08:10.903Z,12.47
2018-05-18T23:10:37.429Z,13.77
2018-05-18T23:13:04.399Z,11.77
2018-05-18T23:15:31.628Z,13.10
2018-05-18T23:17:58.197Z,11.80
2018-05-18T23:20:24.780Z,12.93
2018-05-18T23:22:52.053Z,13.23
2018-05-18T23:25:19.117Z,13.03
2018-05-18T23:27:45.916Z,13.13
2018-05-18T23:30:13.597Z,13.77
2018-05-18T23:32:40.147Z,16.43
2018-05-18T23:35:06.830Z,13.47
2018-05-18T23:37:34.186Z,12.53
2018-05-18T23:40:00.764Z,13.57
2018-05-18T23:42:27.254Z,12.20
2018-05-18T23:44:53.697Z,15.10
2018-05-18T23:47:20.276Z,15.07
2018-05-18T23:49:46.820Z,13.63
2018-05-18T23:52:13.444Z,14.77
2018-05-18T23:54:40.090Z,15.33
2018-05-18T23:57:06.797Z,15.30
2018-05-18T23:59:33.330Z,14.50
